Time;durP1;ratioP1;P1;durP2;ratioP2;P2;SDS_P1;SDS_P2;PMS_P1;PMS_P2;Temp;Humidity;BMP_temperature;BMP_pressure;BME280_temperature;BME280_humidity;BME280_pressure;Samples;Min_cycle;Max_cycle;Signal;HPM_P1;HPM_P2
2023/07/03 00:00:16;;;;;;;18.52;3.17;;;;;;;;;;5027368;28;20031;-70
2023/07/03 00:02:42;;;;;;;11.82;2.65;;;;;;;;;;5031344;28;20042;-70
2023/07/03 00:05:09;;;;;;;14.45;2.95;;;;;;;;;;5028270;28;20045;-70
2023/07/03 00:07:36;;;;;;;19.40;3.15;;;;;;;;;;5025789;28;20488;-70
2023/07/03 00:10:04;;;;;;;9.63;2.58;;;;;;;;;;5024643;28;20548;-70
2023/07/03 00:12:29;;;;;;;17.67;3.15;;;;;;;;;;5026138;28;20575;-70
2023/07/03 00:14:55;;;;;;;20.65;3.17;;;;;;;;;;5024999;28;20037;-70
2023/07/03 00:17:20;;;;;;;16.92;3.55;;;;;;;;;;5023023;28;20037;-70
2023/07/03 00:19:46;;;;;;;13.02;3.25;;;;;;;;;;5025258;28;20056;-70
2023/07/03 00:22:11;;;;;;;19.33;3.55;;;;;;;;;;5025704;28;20090;-70
2023/07/03 00:24:36;;;;;;;10.30;3.00;;;;;;;;;;5025461;28;20523;-70
2023/07/03 00:27:02;;;;;;;15.27;3.63;;;;;;;;;;5025517;28;20041;-70
2023/07/03 00:29:32;;;;;;;12.35;3.42;;;;;;;;;;5025001;28;20060;-70
2023/07/03 00:31:58;;;;;;;18.23;3.03;;;;;;;;;;5025200;28;20049;-70
2023/07/03 00:34:24;;;;;;;14.05;3.60;;;;;;;;;;5025618;28;20125;-70
2023/07/03 00:36:49;;;;;;;20.40;3.67;;;;;;;;;;5025260;28;20112;-70
2023/07/03 00:39:14;;;;;;;17.77;3.78;;;;;;;;;;5025633;28;20025;-70
2023/07/03 00:41:41;;;;;;;15.00;3.20;;;;;;;;;;5023490;28;20052;-70
2023/07/03 00:44:12;;;;;;;17.42;3.65;;;;;;;;;;5025354;28;20116;-70
2023/07/03 00:46:39;;;;;;;13.40;3.20;;;;;;;;;;5022760;28;20128;-70
2023/07/03 00:49:05;;;;;;;11.98;2.83;;;;;;;;;;5023225;28;20029;-70
2023/07/03 00:51:31;;;;;;;14.10;3.35;;;;;;;;;;5024034;28;20384;-70
2023/07/03 00:53:56;;;;;;;11.35;3.05;;;;;;;;;;5023679;28;20076;-70
2023/07/03 00:56:22;;;;;;;18.02;3.85;;;;;;;;;;5025004;28;20715;-70
2023/07/03 00:58:47;;;;;;;18.70;3.72;;;;;;;;;;5025015;28;20415;-70
2023/07/03 01:01:43;;;;;;;15.90;3.38;;;;;;;;;;5024936;28;20051;-70
2023/07/03 01:04:17;;;;;;;16.65;3.63;;;;;;;;;;5023616;28;20038;-70
2023/07/03 01:06:46;;;;;;;17.20;3.60;;;;;;;;;;5012155;28;20044;-70
2023/07/03 01:09:14;;;;;;;16.25;4.00;;;;;;;;;;5025176;28;20730;-70
2023/07/03 01:11:40;;;;;;;17.90;3.55;;;;;;;;;;5024859;28;20037;-70
2023/07/03 01:14:07;;;;;;;19.30;3.78;;;;;;;;;;5027518;28;20037;-70
2023/07/03 01:16:33;;;;;;;17.73;3.97;;;;;;;;;;5022511;28;20187;-70
2023/07/03 01:19:00;;;;;;;12.15;3.28;;;;;;;;;;5029049;28;20030;-70
2023/07/03 01:21:39;;;;;;;15.13;3.72;;;;;;;;;;5029056;28;20021;-70
2023/07/03 01:24:12;;;;;;;13.82;3.45;;;;;;;;;;5029741;28;20064;-70
2023/07/03 01:26:39;;;;;;;13.75;3.58;;;;;;;;;;5030917;28;20105;-70
2023/07/03 01:29:06;;;;;;;15.90;3.65;;;;;;;;;;5021837;28;20056;-70
2023/07/03 01:31:33;;;;;;;19.48;3.58;;;;;;;;;;5028150;28;20103;-70
2023/07/03 01:34:00;;;;;;;14.63;3.90;;;;;;;;;;5028579;28;20679;-70
2023/07/03 01:36:28;;;;;;;16.10;3.60;;;;;;;;;;5027472;28;20487;-70
2023/07/03 01:38:54;;;;;;;17.13;3.72;;;;;;;;;;5025500;28;20042;-70
2023/07/03 01:41:20;;;;;;;14.98;3.90;;;;;;;;;;5014325;28;20516;-70
2023/07/03 01:43:46;;;;;;;18.10;3.50;;;;;;;;;;5016869;28;20040;-70
2023/07/03 01:46:13;;;;;;;19.40;4.15;;;;;;;;;;5051209;28;20034;-70
2023/07/03 01:48:38;;;;;;;12.68;3.78;;;;;;;;;;5024950;28;20560;-70
2023/07/03 01:51:06;;;;;;;14.13;3.88;;;;;;;;;;5026565;28;20533;-70
2023/07/03 01:53:51;;;;;;;22.35;4.03;;;;;;;;;;5028566;28;20052;-70
2023/07/03 01:56:30;;;;;;;18.95;4.65;;;;;;;;;;5026618;28;20029;-70
2023/07/03 01:59:05;;;;;;;16.23;3.55;;;;;;;;;;5015257;28;20037;-70
2023/07/03 02:01:41;;;;;;;11.57;3.35;;;;;;;;;;5027677;28;20427;-70
2023/07/03 02:04:41;;;;;;;11.98;3.30;;;;;;;;;;5028342;28;20033;-70
2023/07/03 02:07:09;;;;;;;15.32;3.42;;;;;;;;;;5026388;28;20405;-70
2023/07/03 02:09:35;;;;;;;16.83;3.95;;;;;;;;;;5026137;28;20029;-70
2023/07/03 02:12:00;;;;;;;14.43;3.80;;;;;;;;;;5014363;28;20530;-70
2023/07/03 02:14:25;;;;;;;12.48;3.60;;;;;;;;;;5026671;28;20072;-70
2023/07/03 02:16:52;;;;;;;17.75;4.00;;;;;;;;;;5013255;28;20132;-70
2023/07/03 02:19:22;;;;;;;16.08;3.95;;;;;;;;;;5026269;28;20107;-70
2023/07/03 02:21:47;;;;;;;19.30;4.10;;;;;;;;;;5026422;28;20022;-70
2023/07/03 02:24:13;;;;;;;19.17;3.67;;;;;;;;;;5026234;28;20026;-70
2023/07/03 02:26:41;;;;;;;11.48;3.35;;;;;;;;;;5026422;28;20480;-70
2023/07/03 02:29:06;;;;;;;13.15;3.88;;;;;;;;;;5025009;28;20069;-70
2023/07/03 02:31:31;;;;;;;13.10;3.78;;;;;;;;;;5024637;28;20064;-70
2023/07/03 02:33:57;;;;;;;18.40;3.97;;;;;;;;;;5026482;28;20128;-70
2023/07/03 02:36:25;;;;;;;20.25;4.22;;;;;;;;;;5025948;28;20022;-70
2023/07/03 02:38:50;;;;;;;15.68;4.55;;;;;;;;;;5026143;28;20987;-70
2023/07/03 02:41:16;;;;;;;17.13;4.40;;;;;;;;;;5025936;28;20136;-70
2023/07/03 02:43:41;;;;;;;11.32;4.05;;;;;;;;;;5024760;28;20447;-70
2023/07/03 02:46:08;;;;;;;20.92;4.43;;;;;;;;;;5024712;28;20044;-70
2023/07/03 02:48:33;;;;;;;23.90;5.15;;;;;;;;;;5027084;28;20048;-70
2023/07/03 02:50:59;;;;;;;12.77;4.15;;;;;;;;;;5028368;28;20543;-69
2023/07/03 02:53:24;;;;;;;12.50;3.90;;;;;;;;;;5026014;28;20120;-70
2023/07/03 02:55:50;;;;;;;20.50;4.10;;;;;;;;;;5029276;28;20050;-70
2023/07/03 02:58:18;;;;;;;18.83;4.45;;;;;;;;;;5022083;28;20396;-70
2023/07/03 03:00:43;;;;;;;13.27;3.90;;;;;;;;;;5024508;28;20457;-70
2023/07/03 03:03:08;;;;;;;17.83;4.85;;;;;;;;;;5026708;28;20549;-70
2023/07/03 03:05:34;;;;;;;10.65;3.70;;;;;;;;;;4987533;28;1109248;-70
2023/07/03 03:07:59;;;;;;;18.92;4.15;;;;;;;;;;5026599;28;20120;-70
2023/07/03 03:10:24;;;;;;;15.52;4.53;;;;;;;;;;5024235;28;20099;-70
2023/07/03 03:12:50;;;;;;;17.73;4.18;;;;;;;;;;5024960;28;20041;-70
2023/07/03 03:15:18;;;;;;;20.92;4.47;;;;;;;;;;5027363;28;20512;-70
2023/07/03 03:17:44;;;;;;;15.05;4.05;;;;;;;;;;5024768;28;20057;-70
2023/07/03 03:20:13;;;;;;;14.55;4.55;;;;;;;;;;5026479;28;20068;-70
2023/07/03 03:22:39;;;;;;;17.65;4.85;;;;;;;;;;5026027;28;20069;-70
2023/07/03 03:25:05;;;;;;;13.98;4.05;;;;;;;;;;5025139;28;20052;-70
2023/07/03 03:27:30;;;;;;;14.35;4.15;;;;;;;;;;5025383;28;20069;-70
2023/07/03 03:29:55;;;;;;;17.25;3.95;;;;;;;;;;5024885;28;20743;-70
2023/07/03 03:32:21;;;;;;;10.27;4.00;;;;;;;;;;5026220;28;20034;-70
2023/07/03 03:34:46;;;;;;;17.20;4.03;;;;;;;;;;5025748;28;20029;-70
2023/07/03 03:37:12;;;;;;;15.82;4.63;;;;;;;;;;5025633;28;20047;-70
2023/07/03 03:39:37;;;;;;;18.65;4.32;;;;;;;;;;5024970;28;20033;-70
2023/07/03 03:42:03;;;;;;;14.32;4.13;;;;;;;;;;5025953;28;20120;-70
2023/07/03 03:44:28;;;;;;;23.60;5.35;;;;;;;;;;5025771;28;20029;-70
2023/07/03 03:46:53;;;;;;;17.67;3.80;;;;;;;;;;5025442;28;20529;-70
2023/07/03 03:49:19;;;;;;;20.80;4.68;;;;;;;;;;5024627;28;20057;-70
2023/07/03 03:51:45;;;;;;;13.10;3.88;;;;;;;;;;5026000;28;20025;-70
2023/07/03 03:54:10;;;;;;;19.02;4.53;;;;;;;;;;5025616;28;20487;-70
2023/07/03 03:56:35;;;;;;;15.38;5.13;;;;;;;;;;5057705;28;20037;-70
2023/07/03 03:59:01;;;;;;;15.23;3.78;;;;;;;;;;5024367;28;20099;-70
2023/07/03 04:01:26;;;;;;;23.15;4.65;;;;;;;;;;5024927;28;20052;-70
2023/07/03 04:03:52;;;;;;;17.40;4.15;;;;;;;;;;5025675;28;20092;-70
2023/07/03 04:06:17;;;;;;;14.55;4.53;;;;;;;;;;5025797;28;20073;-70
2023/07/03 04:08:43;;;;;;;13.43;4.47;;;;;;;;;;5025752;28;20076;-70
2023/07/03 04:11:09;;;;;;;19.65;4.53;;;;;;;;;;5025637;28;20040;-70
2023/07/03 04:13:34;;;;;;;17.73;3.83;;;;;;;;;;5024749;28;20053;-70
2023/07/03 04:16:01;;;;;;;14.43;4.28;;;;;;;;;;5021612;28;20061;-70
2023/07/03 04:18:28;;;;;;;16.38;4.10;;;;;;;;;;5025287;28;20100;-70
2023/07/03 04:20:53;;;;;;;15.10;4.70;;;;;;;;;;5027532;28;20534;-70
2023/07/03 04:23:19;;;;;;;14.52;4.28;;;;;;;;;;5025114;28;20522;-70
2023/07/03 04:25:45;;;;;;;17.02;4.60;;;;;;;;;;5024290;28;20029;-70
2023/07/03 04:28:12;;;;;;;22.48;5.10;;;;;;;;;;5022359;28;20152;-70
2023/07/03 04:30:38;;;;;;;15.15;4.35;;;;;;;;;;5017297;28;20029;-70
2023/07/03 04:33:03;;;;;;;22.88;4.38;;;;;;;;;;5024850;28;20029;-70
2023/07/03 04:35:29;;;;;;;17.05;4.45;;;;;;;;;;5024004;28;20038;-70
2023/07/03 04:37:54;;;;;;;13.80;4.43;;;;;;;;;;5024219;28;20068;-70
2023/07/03 04:40:20;;;;;;;14.63;4.47;;;;;;;;;;5024960;28;20030;-70
2023/07/03 04:42:45;;;;;;;17.52;4.05;;;;;;;;;;5025011;28;20096;-70
2023/07/03 04:45:13;;;;;;;19.23;4.80;;;;;;;;;;5025985;28;20040;-70
2023/07/03 04:47:39;;;;;;;18.13;4.47;;;;;;;;;;5025125;28;20034;-70
2023/07/03 04:50:07;;;;;;;13.27;4.75;;;;;;;;;;5025174;28;20037;-70
2023/07/03 04:52:33;;;;;;;16.77;4.78;;;;;;;;;;5025062;28;20076;-70
2023/07/03 04:54:58;;;;;;;17.85;4.25;;;;;;;;;;5023392;28;20029;-70
2023/07/03 04:57:24;;;;;;;17.73;4.80;;;;;;;;;;5025127;28;20517;-70
2023/07/03 04:59:49;;;;;;;21.33;4.68;;;;;;;;;;5024279;28;20040;-70
2023/07/03 05:02:17;;;;;;;19.52;5.43;;;;;;;;;;5024650;28;20034;-70
2023/07/03 05:04:43;;;;;;;17.85;4.90;;;;;;;;;;5025049;28;20080;-70
2023/07/03 05:07:09;;;;;;;19.45;4.97;;;;;;;;;;5024348;28;20045;-70
2023/07/03 05:09:34;;;;;;;18.10;4.88;;;;;;;;;;5025568;28;20025;-70
2023/07/03 05:12:00;;;;;;;16.20;4.90;;;;;;;;;;5013149;28;20041;-70
2023/07/03 05:14:25;;;;;;;21.65;4.93;;;;;;;;;;5024415;28;20046;-70
2023/07/03 05:16:50;;;;;;;21.60;4.80;;;;;;;;;;5024131;28;20066;-69
2023/07/03 05:19:16;;;;;;;15.25;4.47;;;;;;;;;;5024886;28;20021;-70
2023/07/03 05:21:41;;;;;;;17.90;4.55;;;;;;;;;;5024469;28;20022;-70
2023/07/03 05:24:06;;;;;;;17.10;4.78;;;;;;;;;;5024941;28;20048;-70
2023/07/03 05:26:32;;;;;;;13.13;4.57;;;;;;;;;;5023212;28;20039;-70
2023/07/03 05:28:57;;;;;;;15.40;4.57;;;;;;;;;;5022296;28;20095;-70
2023/07/03 05:31:23;;;;;;;17.15;5.03;;;;;;;;;;5020650;28;20030;-70
2023/07/03 05:33:49;;;;;;;18.25;4.68;;;;;;;;;;5023294;28;20108;-70
2023/07/03 05:36:15;;;;;;;19.10;4.47;;;;;;;;;;5024930;28;20029;-70
2023/07/03 05:38:40;;;;;;;15.93;4.32;;;;;;;;;;5024864;28;20041;-70
2023/07/03 05:41:06;;;;;;;14.95;4.45;;;;;;;;;;5025146;28;20116;-70
2023/07/03 05:43:31;;;;;;;17.48;4.72;;;;;;;;;;5028484;28;20033;-70
2023/07/03 05:45:56;;;;;;;21.15;4.80;;;;;;;;;;5026766;28;20483;-70
2023/07/03 05:48:23;;;;;;;15.52;4.85;;;;;;;;;;5024196;28;20018;-69
2023/07/03 05:50:48;;;;;;;18.10;5.22;;;;;;;;;;5023043;28;20175;-70
2023/07/03 05:53:14;;;;;;;19.00;5.10;;;;;;;;;;5024425;28;20056;-70
2023/07/03 05:55:40;;;;;;;19.02;4.68;;;;;;;;;;5024114;28;20033;-70
2023/07/03 05:58:05;;;;;;;14.32;4.57;;;;;;;;;;5024177;28;20035;-70
2023/07/03 06:00:31;;;;;;;14.07;4.22;;;;;;;;;;5028230;28;20060;-70
2023/07/03 06:02:57;;;;;;;15.43;4.88;;;;;;;;;;5027715;28;20573;-70
2023/07/03 06:05:22;;;;;;;20.23;5.18;;;;;;;;;;5025812;28;20041;-70
2023/07/03 06:07:48;;;;;;;13.15;4.60;;;;;;;;;;5027774;28;20805;-70
2023/07/03 06:10:14;;;;;;;21.25;5.32;;;;;;;;;;5028128;28;20068;-70
2023/07/03 06:12:40;;;;;;;21.85;5.00;;;;;;;;;;5028583;28;20105;-70
2023/07/03 06:15:06;;;;;;;15.60;4.75;;;;;;;;;;5027541;28;20498;-70
2023/07/03 06:17:32;;;;;;;17.60;5.20;;;;;;;;;;5015908;28;20039;-70
2023/07/03 06:19:57;;;;;;;14.13;4.65;;;;;;;;;;5027668;28;20088;-70
2023/07/03 06:22:23;;;;;;;16.00;4.38;;;;;;;;;;5027978;28;20036;-70
2023/07/03 06:24:48;;;;;;;15.70;4.55;;;;;;;;;;5027483;28;20541;-70
2023/07/03 06:27:14;;;;;;;19.45;4.70;;;;;;;;;;5025791;28;20017;-70
2023/07/03 06:29:40;;;;;;;17.17;4.38;;;;;;;;;;5013039;28;20128;-70
2023/07/03 06:32:06;;;;;;;18.17;4.82;;;;;;;;;;5014205;28;20042;-70
2023/07/03 06:34:31;;;;;;;10.77;4.40;;;;;;;;;;5022348;28;20954;-70
2023/07/03 06:36:57;;;;;;;16.05;4.18;;;;;;;;;;5026507;28;20032;-70
2023/07/03 06:39:23;;;;;;;18.75;5.47;;;;;;;;;;5025860;28;20021;-70
2023/07/03 06:41:48;;;;;;;13.60;4.72;;;;;;;;;;5027635;28;20116;-70
2023/07/03 06:44:15;;;;;;;11.07;3.83;;;;;;;;;;5027213;28;20087;-70
2023/07/03 06:46:41;;;;;;;18.90;4.43;;;;;;;;;;5027263;28;20033;-70
2023/07/03 06:49:07;;;;;;;15.30;4.45;;;;;;;;;;5026808;28;20022;-70
2023/07/03 06:51:32;;;;;;;17.88;4.80;;;;;;;;;;5027565;28;20029;-70
2023/07/03 06:53:58;;;;;;;13.82;4.40;;;;;;;;;;5027213;28;20029;-70
2023/07/03 06:56:23;;;;;;;11.15;3.95;;;;;;;;;;5025191;28;20129;-70
2023/07/03 06:58:49;;;;;;;15.52;4.38;;;;;;;;;;5022512;28;20039;-70
2023/07/03 07:01:20;;;;;;;13.32;4.25;;;;;;;;;;5025824;28;20045;-69
2023/07/03 07:03:45;;;;;;;16.48;4.20;;;;;;;;;;5024032;28;20022;-70
2023/07/03 07:06:17;;;;;;;13.20;4.38;;;;;;;;;;5025515;28;20041;-69
2023/07/03 07:08:43;;;;;;;13.38;3.58;;;;;;;;;;5030031;28;20041;-70
2023/07/03 07:11:11;;;;;;;14.07;3.75;;;;;;;;;;5022980;28;20122;-70
2023/07/03 07:13:39;;;;;;;13.10;3.35;;;;;;;;;;5020439;28;20029;-70
2023/07/03 07:16:05;;;;;;;12.57;3.80;;;;;;;;;;5017582;28;20117;-70
2023/07/03 07:18:30;;;;;;;9.35;3.80;;;;;;;;;;5051853;28;20112;-70
2023/07/03 07:20:55;;;;;;;10.75;3.80;;;;;;;;;;5024226;28;20029;-70
2023/07/03 07:23:21;;;;;;;13.23;3.88;;;;;;;;;;5025870;28;20039;-70
2023/07/03 07:25:53;;;;;;;12.40;3.58;;;;;;;;;;5025294;28;20406;-70
2023/07/03 07:28:18;;;;;;;11.40;3.80;;;;;;;;;;5026457;28;20507;-70
2023/07/03 07:30:44;;;;;;;12.35;3.65;;;;;;;;;;5025139;28;20094;-70
2023/07/03 07:33:09;;;;;;;11.80;3.88;;;;;;;;;;5024487;28;20040;-70
2023/07/03 07:35:35;;;;;;;12.73;4.45;;;;;;;;;;5025510;28;20080;-71
2023/07/03 07:38:00;;;;;;;12.18;3.42;;;;;;;;;;5026322;28;20036;-71
2023/07/03 07:40:26;;;;;;;11.50;3.95;;;;;;;;;;5023457;28;20068;-70
2023/07/03 07:42:51;;;;;;;13.77;3.67;;;;;;;;;;5024673;28;20395;-70
2023/07/03 07:45:16;;;;;;;11.00;3.25;;;;;;;;;;5026336;28;20415;-70
2023/07/03 07:47:42;;;;;;;12.25;3.55;;;;;;;;;;5025301;28;20656;-70
2023/07/03 07:50:08;;;;;;;9.20;3.30;;;;;;;;;;5025803;28;20034;-70
2023/07/03 07:52:33;;;;;;;11.63;3.30;;;;;;;;;;5023573;28;20515;-70
2023/07/03 07:54:58;;;;;;;10.95;3.10;;;;;;;;;;5025638;28;20108;-70
2023/07/03 07:57:25;;;;;;;15.60;3.65;;;;;;;;;;5025639;28;20056;-70
2023/07/03 07:59:51;;;;;;;15.48;3.40;;;;;;;;;;5024176;28;20033;-70
2023/07/03 08:02:16;;;;;;;14.32;3.22;;;;;;;;;;5016088;28;20510;-69
2023/07/03 08:04:43;;;;;;;11.95;3.50;;;;;;;;;;5018899;28;20088;-70
2023/07/03 08:07:08;;;;;;;11.48;3.10;;;;;;;;;;5016958;28;20029;-74
2023/07/03 08:09:33;;;;;;;10.93;3.63;;;;;;;;;;5013107;28;20621;-70
2023/07/03 08:12:04;;;;;;;13.27;3.28;;;;;;;;;;5017104;28;20034;-70
2023/07/03 08:14:30;;;;;;;12.32;3.53;;;;;;;;;;5029617;28;20029;-71
2023/07/03 08:16:55;;;;;;;12.25;3.78;;;;;;;;;;5015660;28;20563;-70
2023/07/03 08:19:20;;;;;;;17.48;3.70;;;;;;;;;;5023816;28;20061;-70
2023/07/03 08:21:46;;;;;;;13.48;3.90;;;;;;;;;;5025524;28;20029;-70
2023/07/03 08:24:11;;;;;;;6.97;3.42;;;;;;;;;;5057418;28;20617;-70
2023/07/03 08:26:36;;;;;;;11.15;3.20;;;;;;;;;;5026195;28;20056;-69
2023/07/03 08:29:02;;;;;;;14.10;3.20;;;;;;;;;;5025200;28;20082;-69
2023/07/03 08:31:27;;;;;;;9.00;3.95;;;;;;;;;;5025021;28;20120;-69
2023/07/03 08:33:54;;;;;;;12.85;3.58;;;;;;;;;;5031745;28;20096;-69
2023/07/03 08:36:20;;;;;;;10.80;3.63;;;;;;;;;;5029070;28;20029;-69
2023/07/03 08:38:46;;;;;;;8.25;2.95;;;;;;;;;;5025547;28;20040;-69
2023/07/03 08:41:14;;;;;;;7.65;3.03;;;;;;;;;;5019563;28;20034;-70
2023/07/03 08:43:42;;;;;;;11.20;3.50;;;;;;;;;;5015764;28;20029;-69
2023/07/03 08:46:11;;;;;;;8.70;2.72;;;;;;;;;;5023623;28;20049;-69
2023/07/03 08:48:38;;;;;;;9.88;2.70;;;;;;;;;;5025393;28;20021;-70
2023/07/03 08:51:07;;;;;;;11.10;2.70;;;;;;;;;;5025663;28;20048;-69
2023/07/03 08:53:36;;;;;;;7.93;3.08;;;;;;;;;;5023977;28;20044;-69
2023/07/03 08:56:14;;;;;;;7.93;3.10;;;;;;;;;;5024433;28;20091;-70
2023/07/03 08:58:41;;;;;;;11.73;2.92;;;;;;;;;;5024097;28;20064;-70
2023/07/03 09:01:14;;;;;;;9.70;3.40;;;;;;;;;;5022540;28;20160;-69
2023/07/03 09:04:00;;;;;;;9.60;2.67;;;;;;;;;;5024572;28;20133;-69
2023/07/03 09:06:38;;;;;;;7.28;2.92;;;;;;;;;;5010519;28;20798;-69
2023/07/03 09:09:17;;;;;;;10.77;2.55;;;;;;;;;;5023670;28;20038;-69
2023/07/03 09:11:51;;;;;;;9.23;3.30;;;;;;;;;;5015450;28;20034;-69
2023/07/03 09:14:22;;;;;;;10.63;2.40;;;;;;;;;;5022513;28;20041;-69
2023/07/03 09:16:47;;;;;;;5.78;1.98;;;;;;;;;;5012778;28;20037;-69
2023/07/03 09:19:21;;;;;;;9.13;2.33;;;;;;;;;;5043432;28;20056;-69
2023/07/03 09:21:50;;;;;;;6.43;2.28;;;;;;;;;;5018243;28;20029;-69
2023/07/03 09:24:24;;;;;;;6.32;2.40;;;;;;;;;;5016357;28;20522;-69
2023/07/03 09:26:57;;;;;;;6.65;2.55;;;;;;;;;;5011165;28;20022;-68
2023/07/03 09:29:24;;;;;;;8.75;3.28;;;;;;;;;;5047284;28;20048;-70
2023/07/03 09:31:50;;;;;;;7.97;2.38;;;;;;;;;;5012939;28;20048;-70
2023/07/03 09:34:16;;;;;;;12.50;2.60;;;;;;;;;;5019319;28;20037;-70
2023/07/03 09:36:43;;;;;;;9.10;2.83;;;;;;;;;;5018264;28;20550;-70
2023/07/03 09:39:14;;;;;;;13.10;2.50;;;;;;;;;;5020920;28;20478;-70
2023/07/03 09:41:40;;;;;;;8.88;2.58;;;;;;;;;;5016957;28;20045;-72
2023/07/03 09:44:12;;;;;;;10.77;2.55;;;;;;;;;;5018935;28;20581;-69
2023/07/03 09:46:38;;;;;;;10.65;2.95;;;;;;;;;;5021206;28;20126;-69
2023/07/03 09:49:07;;;;;;;8.95;2.30;;;;;;;;;;5020122;28;20586;-70
2023/07/03 09:51:36;;;;;;;8.98;2.25;;;;;;;;;;5014224;28;20490;-69
2023/07/03 09:54:07;;;;;;;8.27;2.50;;;;;;;;;;5019518;28;20041;-69
2023/07/03 09:56:33;;;;;;;7.20;2.25;;;;;;;;;;5021242;28;21373;-68
2023/07/03 09:59:02;;;;;;;7.90;2.40;;;;;;;;;;5020126;28;20030;-69
2023/07/03 10:01:31;;;;;;;8.70;2.55;;;;;;;;;;5050398;28;20126;-70
2023/07/03 10:04:06;;;;;;;9.65;2.47;;;;;;;;;;5016066;28;20029;-70
2023/07/03 10:06:32;;;;;;;15.98;2.58;;;;;;;;;;5019105;28;20057;-69
2023/07/03 10:09:04;;;;;;;6.80;2.20;;;;;;;;;;5022408;28;20479;-69
2023/07/03 10:11:57;;;;;;;15.73;2.55;;;;;;;;;;5025467;28;20037;-70
2023/07/03 10:14:35;;;;;;;8.45;2.10;;;;;;;;;;5027172;28;20079;-70
2023/07/03 10:17:01;;;;;;;8.20;2.00;;;;;;;;;;5019060;28;20112;-69
2023/07/03 10:19:27;;;;;;;10.32;2.10;;;;;;;;;;5018971;28;20045;-70
2023/07/03 10:21:54;;;;;;;8.70;2.25;;;;;;;;;;5017941;28;20045;-69
2023/07/03 10:24:20;;;;;;;6.85;2.25;;;;;;;;;;5031194;28;20026;-70
2023/07/03 10:26:50;;;;;;;10.98;2.50;;;;;;;;;;5018442;28;20065;-69
2023/07/03 10:29:26;;;;;;;8.13;2.30;;;;;;;;;;5045377;28;20064;-70
2023/07/03 10:31:59;;;;;;;5.20;1.83;;;;;;;;;;5020258;28;20045;-70
2023/07/03 10:34:37;;;;;;;10.50;2.60;;;;;;;;;;5021934;28;20044;-70
2023/07/03 10:37:05;;;;;;;9.57;2.40;;;;;;;;;;5010345;28;20034;-70
2023/07/03 10:39:51;;;;;;;11.35;2.38;;;;;;;;;;5018605;28;20029;-70
2023/07/03 10:42:26;;;;;;;6.95;1.83;;;;;;;;;;5032166;28;20052;-69
2023/07/03 10:44:58;;;;;;;6.05;1.90;;;;;;;;;;5018125;28;20522;-70
2023/07/03 10:47:39;;;;;;;13.90;2.47;;;;;;;;;;5018033;28;20042;-70
2023/07/03 10:50:06;;;;;;;12.45;2.53;;;;;;;;;;5022956;28;20045;-69
2023/07/03 10:53:00;;;;;;;9.32;2.25;;;;;;;;;;5027299;28;20046;-71
2023/07/03 10:55:34;;;;;;;8.30;2.47;;;;;;;;;;5017192;28;20120;-71
2023/07/03 10:58:11;;;;;;;10.23;2.22;;;;;;;;;;5018488;28;20037;-71
2023/07/03 11:01:14;;;;;;;12.50;2.60;;;;;;;;;;5009290;28;20020;-72
2023/07/03 11:03:43;;;;;;;10.83;2.53;;;;;;;;;;5050576;28;20046;-71
2023/07/03 11:06:21;;;;;;;8.52;2.08;;;;;;;;;;5017032;28;20296;-70
2023/07/03 11:09:00;;;;;;;5.55;2.08;;;;;;;;;;5014034;28;20044;-72
2023/07/03 11:11:38;;;;;;;7.88;2.00;;;;;;;;;;5014878;28;20623;-69
2023/07/03 11:14:20;;;;;;;8.13;2.40;;;;;;;;;;5019724;28;20690;-70
2023/07/03 11:17:06;;;;;;;8.73;2.20;;;;;;;;;;5016074;28;20713;-69
2023/07/03 11:19:56;;;;;;;6.95;2.28;;;;;;;;;;5018603;28;20064;-70
2023/07/03 11:22:46;;;;;;;5.35;2.25;;;;;;;;;;5029846;28;20187;-69
2023/07/03 11:25:27;;;;;;;10.63;2.40;;;;;;;;;;5032224;28;20052;-70
2023/07/03 11:28:14;;;;;;;8.82;1.90;;;;;;;;;;5027576;28;20510;-70
2023/07/03 11:30:42;;;;;;;8.82;2.47;;;;;;;;;;5009820;28;20056;-70
2023/07/03 11:33:08;;;;;;;8.18;1.92;;;;;;;;;;5021598;28;20546;-70
2023/07/03 11:35:34;;;;;;;9.55;2.03;;;;;;;;;;5016469;28;20055;-70
2023/07/03 11:38:10;;;;;;;9.30;2.13;;;;;;;;;;5024096;28;20042;-70
2023/07/03 11:40:53;;;;;;;5.70;1.63;;;;;;;;;;5023359;28;20040;-70
2023/07/03 11:43:42;;;;;;;7.43;2.00;;;;;;;;;;5012752;28;20519;-69
2023/07/03 11:46:18;;;;;;;7.45;1.77;;;;;;;;;;5025602;28;20562;-69
2023/07/03 11:48:47;;;;;;;5.55;1.80;;;;;;;;;;5024236;28;20244;-68
2023/07/03 11:51:34;;;;;;;8.27;1.90;;;;;;;;;;5019937;28;20083;-69
2023/07/03 11:54:00;;;;;;;6.68;1.90;;;;;;;;;;5018670;28;20026;-68
2023/07/03 11:56:31;;;;;;;6.15;1.98;;;;;;;;;;5018783;28;20079;-68
2023/07/03 11:59:25;;;;;;;6.82;1.90;;;;;;;;;;5019800;28;20699;-69
2023/07/03 12:02:10;;;;;;;8.40;2.60;;;;;;;;;;5021763;28;20069;-68
2023/07/03 12:04:47;;;;;;;5.93;1.90;;;;;;;;;;5022624;28;20068;-69
2023/07/03 12:07:19;;;;;;;9.07;1.92;;;;;;;;;;5024711;28;20041;-69
2023/07/03 12:09:48;;;;;;;5.32;1.88;;;;;;;;;;5017498;28;20033;-68
2023/07/03 12:12:21;;;;;;;7.45;1.70;;;;;;;;;;5011983;28;20040;-67
2023/07/03 12:14:58;;;;;;;4.83;1.80;;;;;;;;;;5015540;28;20045;-69
2023/07/03 12:17:27;;;;;;;5.85;1.55;;;;;;;;;;5023762;28;20385;-69
2023/07/03 12:19:54;;;;;;;8.35;2.13;;;;;;;;;;5024877;28;20471;-69
2023/07/03 12:22:22;;;;;;;6.35;1.95;;;;;;;;;;5011278;28;20029;-69
2023/07/03 12:24:58;;;;;;;6.78;2.05;;;;;;;;;;5015336;28;20403;-69
2023/07/03 12:27:24;;;;;;;6.88;1.85;;;;;;;;;;5014982;28;20133;-69
2023/07/03 12:29:50;;;;;;;3.33;1.67;;;;;;;;;;5014214;28;20531;-69
2023/07/03 12:32:32;;;;;;;4.32;2.05;;;;;;;;;;5025523;28;20044;-70
2023/07/03 12:35:16;;;;;;;6.47;2.27;;;;;;;;;;5024170;28;20046;-69
2023/07/03 12:37:49;;;;;;;11.23;2.70;;;;;;;;;;5025163;28;20029;-69
2023/07/03 12:40:16;;;;;;;;;;;;;;;;;;5022075;28;20029;-68
2023/07/03 12:42:45;;;;;;;10.10;2.22;;;;;;;;;;5023496;28;19909;-69
2023/07/03 12:45:13;;;;;;;10.65;2.50;;;;;;;;;;5013016;28;20045;-69
2023/07/03 12:47:39;;;;;;;7.00;2.50;;;;;;;;;;5023528;28;20052;-69
2023/07/03 12:50:05;;;;;;;10.63;2.50;;;;;;;;;;5020584;28;20072;-69
2023/07/03 12:52:33;;;;;;;14.70;2.63;;;;;;;;;;5017482;28;20037;-68
2023/07/03 12:55:00;;;;;;;8.40;2.15;;;;;;;;;;5012417;28;20025;-69
2023/07/03 12:57:28;;;;;;;7.68;2.33;;;;;;;;;;5017214;28;20030;-69
2023/07/03 12:59:54;;;;;;;9.70;2.58;;;;;;;;;;5017874;28;20030;-69
2023/07/03 13:02:25;;;;;;;10.93;2.65;;;;;;;;;;5016781;28;20778;-69
2023/07/03 13:05:01;;;;;;;10.05;2.88;;;;;;;;;;5012699;28;20104;-69
2023/07/03 13:07:28;;;;;;;9.68;2.38;;;;;;;;;;5024215;28;20040;-69
2023/07/03 13:09:56;;;;;;;7.60;2.50;;;;;;;;;;5029647;28;20063;-69
2023/07/03 13:12:24;;;;;;;8.98;2.63;;;;;;;;;;5017838;28;20032;-69
2023/07/03 13:15:09;;;;;;;12.85;3.90;;;;;;;;;;5028217;28;20814;-69
2023/07/03 13:17:38;;;;;;;13.60;2.90;;;;;;;;;;5017708;28;20396;-69
2023/07/03 13:20:15;;;;;;;9.07;2.78;;;;;;;;;;5029398;28;20038;-69
2023/07/03 13:23:02;;;;;;;9.73;2.90;;;;;;;;;;5028735;28;20098;-69
2023/07/03 13:25:41;;;;;;;8.40;2.38;;;;;;;;;;5029105;28;20041;-69
2023/07/03 13:28:08;;;;;;;7.55;2.85;;;;;;;;;;5028616;28;20052;-69
2023/07/03 13:30:37;;;;;;;11.82;3.25;;;;;;;;;;5028234;28;20052;-69
2023/07/03 13:33:24;;;;;;;8.43;3.00;;;;;;;;;;5027471;28;20038;-69
2023/07/03 13:35:51;;;;;;;5.93;2.63;;;;;;;;;;5028599;28;20044;-69
2023/07/03 13:38:22;;;;;;;5.68;2.40;;;;;;;;;;5027792;28;20033;-69
2023/07/03 13:40:49;;;;;;;6.65;2.72;;;;;;;;;;5025704;28;20423;-69
2023/07/03 13:43:23;;;;;;;7.95;3.15;;;;;;;;;;5026949;28;20028;-69
2023/07/03 13:45:50;;;;;;;9.23;2.72;;;;;;;;;;5028532;28;20554;-69
2023/07/03 13:48:15;;;;;;;9.15;3.45;;;;;;;;;;5027904;28;20029;-69
2023/07/03 13:50:41;;;;;;;5.97;2.25;;;;;;;;;;5027426;28;20033;-69
2023/07/03 13:53:07;;;;;;;8.77;2.45;;;;;;;;;;5027990;28;20029;-69
2023/07/03 13:55:32;;;;;;;7.82;2.63;;;;;;;;;;5025701;28;20619;-69
2023/07/03 13:57:57;;;;;;;9.32;2.00;;;;;;;;;;5026132;28;20029;-69
2023/07/03 14:00:23;;;;;;;5.53;2.40;;;;;;;;;;5017130;28;20511;-69
2023/07/03 14:02:48;;;;;;;6.53;2.55;;;;;;;;;;5016343;28;20084;-70
2023/07/03 14:05:14;;;;;;;6.50;2.33;;;;;;;;;;5024568;28;20061;-69
2023/07/03 14:07:39;;;;;;;5.22;2.30;;;;;;;;;;5028024;28;20026;-70
2023/07/03 14:10:05;;;;;;;9.43;2.50;;;;;;;;;;5028173;28;20495;-69
2023/07/03 14:12:31;;;;;;;6.82;2.25;;;;;;;;;;5023207;28;20656;-70
2023/07/03 14:14:56;;;;;;;5.60;2.40;;;;;;;;;;5023534;28;20026;-70
2023/07/03 14:17:21;;;;;;;6.25;2.22;;;;;;;;;;5060116;28;20056;-70
2023/07/03 14:19:47;;;;;;;7.95;2.28;;;;;;;;;;5024079;28;20038;-70
2023/07/03 14:22:12;;;;;;;4.65;1.90;;;;;;;;;;5027615;28;20411;-70
2023/07/03 14:24:37;;;;;;;8.73;2.03;;;;;;;;;;5028182;28;20034;-69
2023/07/03 14:27:03;;;;;;;6.00;1.70;;;;;;;;;;5027471;28;20056;-70
2023/07/03 14:29:28;;;;;;;4.13;1.67;;;;;;;;;;5027679;28;20041;-70
2023/07/03 14:31:54;;;;;;;7.13;1.70;;;;;;;;;;5025183;28;20069;-70
2023/07/03 14:34:19;;;;;;;7.00;2.10;;;;;;;;;;5027259;28;20037;-70
2023/07/03 14:36:44;;;;;;;6.63;2.17;;;;;;;;;;5027768;28;20395;-70
2023/07/03 14:39:10;;;;;;;6.45;1.70;;;;;;;;;;5028267;28;20029;-70
2023/07/03 14:41:36;;;;;;;4.53;1.75;;;;;;;;;;5027333;28;20033;-70